createdAt,value
2024-05-09T00:02:14.696Z,53.11
2024-05-09T00:04:45.916Z,53.32
2024-05-09T00:07:23.466Z,53.22
2024-05-09T00:09:57.379Z,53.67
2024-05-09T00:12:29.338Z,53.76
2024-05-09T00:15:02.471Z,53.81
2024-05-09T00:17:34.515Z,53.32
2024-05-09T00:20:11.065Z,53.79
2024-05-09T00:22:45.703Z,53.89
2024-05-09T00:25:19.502Z,53.70
2024-05-09T00:27:51.272Z,53.79
2024-05-09T00:30:31.481Z,53.92
2024-05-09T00:33:10.820Z,54.07
2024-05-09T00:35:43.442Z,53.89
2024-05-09T00:38:13.550Z,54.19
2024-05-09T00:40:48.649Z,54.13
2024-05-09T00:43:20.340Z,54.17
2024-05-09T00:45:56.163Z,53.94
2024-05-09T00:48:27.683Z,54.19
2024-05-09T00:51:01.588Z,54.21
2024-05-09T00:53:35.293Z,54.21
2024-05-09T00:56:11.047Z,53.86
2024-05-09T00:58:42.816Z,53.86
2024-05-09T01:01:14.748Z,54.34
2024-05-09T01:03:48.757Z,54.06
2024-05-09T01:06:22.599Z,54.38
2024-05-09T01:08:52.470Z,54.06
2024-05-09T01:11:26.253Z,54.19
2024-05-09T01:13:59.080Z,54.06
2024-05-09T01:16:31.297Z,53.99
2024-05-09T01:19:01.794Z,54.17
2024-05-09T01:21:35.225Z,54.08
2024-05-09T01:24:11.896Z,54.00
2024-05-09T01:26:44.936Z,54.42
2024-05-09T01:29:16.009Z,54.07
2024-05-09T01:31:46.575Z,54.26
2024-05-09T01:34:19.408Z,54.34
2024-05-09T01:36:50.606Z,54.25
2024-05-09T01:39:25.931Z,53.80
2024-05-09T01:41:56.695Z,53.85
2024-05-09T01:44:27.455Z,54.10
2024-05-09T01:47:00.736Z,53.99
2024-05-09T01:49:31.648Z,54.30
2024-05-09T01:52:03.290Z,54.15
2024-05-09T01:54:37.598Z,54.27
2024-05-09T01:57:14.009Z,54.33
2024-05-09T01:59:47.451Z,54.49
2024-05-09T02:02:25.168Z,54.72
2024-05-09T02:04:57.966Z,54.46
2024-05-09T02:07:31.989Z,54.39
2024-05-09T02:10:13.566Z,54.70
2024-05-09T02:12:49.584Z,54.19
2024-05-09T02:15:19.983Z,54.63
2024-05-09T02:17:51.877Z,54.74
2024-05-09T02:20:36.230Z,54.69
2024-05-09T02:23:21.549Z,54.42
2024-05-09T02:25:54.896Z,54.75
2024-05-09T02:28:27.913Z,54.98
2024-05-09T02:30:58.466Z,54.30
2024-05-09T02:33:36.196Z,54.51
2024-05-09T02:36:15.960Z,55.02
2024-05-09T02:38:45.523Z,54.63
2024-05-09T02:41:23.540Z,54.57
2024-05-09T02:43:53.583Z,54.70
2024-05-09T02:46:24.674Z,54.55
2024-05-09T02:48:52.158Z,54.71
2024-05-09T02:51:24.851Z,54.72
2024-05-09T02:53:53.151Z,55.01
2024-05-09T02:56:31.764Z,54.70
2024-05-09T02:59:02.271Z,55.05
2024-05-09T03:01:35.694Z,54.82
2024-05-09T03:04:11.310Z,55.16
2024-05-09T03:06:48.783Z,54.97
2024-05-09T03:09:19.871Z,54.51
2024-05-09T03:11:53.887Z,54.54
2024-05-09T03:14:24.488Z,54.93
2024-05-09T03:16:57.278Z,54.57
2024-05-09T03:19:29.892Z,54.49
2024-05-09T03:22:02.364Z,54.54
2024-05-09T03:24:30.893Z,54.57
2024-05-09T03:27:03.663Z,54.95
2024-05-09T03:29:34.465Z,54.74
2024-05-09T03:32:10.089Z,54.91
2024-05-09T03:34:41.296Z,54.63
2024-05-09T03:37:15.389Z,54.75
2024-05-09T03:39:47.445Z,54.49
2024-05-09T03:42:20.345Z,54.58
2024-05-09T03:44:52.645Z,54.97
2024-05-09T03:47:22.468Z,54.63
2024-05-09T03:49:55.469Z,54.64
2024-05-09T03:52:23.287Z,54.42
2024-05-09T03:54:55.015Z,54.51
2024-05-09T03:57:27.096Z,54.99
2024-05-09T04:00:05.436Z,54.38
2024-05-09T04:02:47.097Z,54.80
2024-05-09T04:05:20.118Z,54.68
2024-05-09T04:07:57.913Z,54.26
2024-05-09T04:10:34.394Z,54.22
2024-05-09T04:13:10.233Z,54.23
2024-05-09T04:15:40.554Z,54.49
2024-05-09T04:18:09.696Z,54.21
2024-05-09T04:20:41.540Z,54.44
2024-05-09T04:23:13.688Z,54.18
2024-05-09T04:25:48.592Z,54.31
2024-05-09T04:28:23.947Z,54.24
2024-05-09T04:31:05.669Z,54.15
2024-05-09T04:33:34.755Z,54.52
2024-05-09T04:36:08.390Z,54.15
2024-05-09T04:38:47.124Z,54.03
2024-05-09T04:41:23.292Z,53.94
2024-05-09T04:44:08.607Z,54.25
2024-05-09T04:46:41.538Z,54.21
2024-05-09T04:49:09.737Z,54.91
2024-05-09T04:51:41.474Z,54.65
2024-05-09T04:54:22.105Z,55.27
2024-05-09T04:57:00.685Z,55.53
2024-05-09T04:59:34.282Z,56.03
2024-05-09T05:02:06.604Z,56.33
2024-05-09T05:04:34.164Z,56.49
2024-05-09T05:07:06.943Z,56.69
2024-05-09T05:09:35.057Z,56.61
2024-05-09T05:12:26.165Z,56.61
2024-05-09T05:14:57.498Z,56.75
2024-05-09T05:17:30.849Z,56.69
2024-05-09T05:19:59.008Z,57.07
2024-05-09T05:22:31.882Z,57.04
2024-05-09T05:25:05.219Z,57.25
2024-05-09T05:27:41.782Z,57.37
2024-05-09T05:30:21.508Z,57.34
2024-05-09T05:32:59.403Z,57.51
2024-05-09T05:35:28.147Z,57.36
2024-05-09T05:37:58.944Z,57.33
2024-05-09T05:40:36.221Z,57.71
2024-05-09T05:43:13.997Z,57.33
2024-05-09T05:45:46.031Z,57.62
2024-05-09T05:48:29.434Z,57.80
2024-05-09T05:51:00.402Z,58.24
2024-05-09T05:53:35.010Z,58.12
2024-05-09T05:56:04.655Z,58.47
2024-05-09T05:58:37.588Z,58.37
2024-05-09T06:01:10.695Z,57.92
2024-05-09T06:03:42.906Z,58.27
2024-05-09T06:06:13.373Z,58.05
2024-05-09T06:08:45.886Z,58.04
2024-05-09T06:11:20.276Z,57.83
2024-05-09T06:13:51.564Z,58.32
2024-05-09T06:16:23.178Z,58.09
2024-05-09T06:18:57.584Z,58.37
2024-05-09T06:21:30.736Z,58.06
2024-05-09T06:24:05.328Z,58.10
2024-05-09T06:26:36.335Z,58.27
2024-05-09T06:29:06.970Z,58.46
2024-05-09T06:31:41.327Z,58.21
2024-05-09T06:34:14.771Z,58.52
2024-05-09T06:36:46.579Z,58.35
2024-05-09T06:39:20.560Z,58.30
2024-05-09T06:41:49.200Z,58.74
2024-05-09T06:44:21.454Z,58.68
2024-05-09T06:46:53.332Z,58.57
2024-05-09T06:49:30.241Z,58.57
2024-05-09T06:52:04.687Z,58.34
2024-05-09T06:54:33.455Z,58.53
2024-05-09T06:57:06.504Z,58.42
2024-05-09T06:59:34.334Z,58.15
2024-05-09T07:02:09.495Z,57.97
2024-05-09T07:04:38.082Z,58.12
2024-05-09T07:07:10.023Z,58.25
2024-05-09T07:09:50.075Z,58.43
2024-05-09T07:12:20.604Z,58.36
2024-05-09T07:14:51.141Z,58.16
2024-05-09T07:17:32.424Z,57.99
2024-05-09T07:20:02.013Z,58.33
2024-05-09T07:22:33.760Z,57.83
2024-05-09T07:25:06.202Z,57.99
2024-05-09T07:27:43.003Z,57.90
2024-05-09T07:30:22.942Z,57.81
2024-05-09T07:33:02.578Z,57.79
2024-05-09T07:35:50.095Z,57.42
2024-05-09T07:38:28.357Z,57.28
2024-05-09T07:40:57.722Z,57.03
2024-05-09T07:43:39.628Z,56.88
2024-05-09T07:50:35.885Z,56.74
2024-05-09T07:53:21.805Z,56.69
2024-05-09T07:54:46.029Z,56.92
2024-05-09T07:57:20.273Z,56.58
2024-05-09T08:00:06.696Z,56.21
2024-05-09T08:02:40.140Z,56.36
2024-05-09T08:05:17.580Z,56.31
2024-05-09T08:07:56.855Z,56.03
2024-05-09T08:13:12.996Z,56.71
2024-05-09T08:15:42.695Z,56.37
2024-05-09T08:18:14.285Z,55.96
2024-05-09T08:20:50.800Z,56.14
2024-05-09T08:23:20.684Z,55.90
2024-05-09T08:25:48.165Z,56.05
2024-05-09T08:28:21.147Z,55.85
2024-05-09T08:30:49.929Z,55.92
2024-05-09T08:33:22.625Z,55.81
2024-05-09T08:35:55.521Z,56.04
2024-05-09T08:38:30.933Z,55.65
2024-05-09T08:40:59.629Z,55.78
2024-05-09T08:43:30.436Z,55.00
2024-05-09T08:45:58.151Z,55.23
2024-05-09T08:48:29.211Z,55.03
2024-05-09T08:51:05.403Z,54.87
2024-05-09T08:53:37.414Z,54.89
2024-05-09T08:58:56.395Z,54.63
2024-05-09T09:01:24.081Z,54.57
2024-05-09T09:03:54.300Z,54.16
2024-05-09T09:06:24.650Z,54.25
2024-05-09T09:08:55.102Z,53.86
2024-05-09T09:11:23.757Z,54.24
2024-05-09T09:14:31.085Z,53.63
2024-05-09T09:17:02.703Z,53.74
2024-05-09T09:19:38.731Z,53.13
2024-05-09T09:22:17.173Z,53.29
2024-05-09T09:24:52.030Z,53.36
2024-05-09T09:27:31.661Z,52.88
2024-05-09T09:30:27.286Z,52.52
2024-05-09T09:33:03.266Z,52.05
2024-05-09T09:35:45.229Z,51.86
2024-05-09T09:38:20.337Z,51.74
2024-05-09T09:40:55.562Z,50.88
2024-05-09T09:43:28.809Z,50.61
2024-05-09T09:46:02.556Z,50.47
2024-05-09T09:48:47.113Z,50.50
2024-05-09T09:54:13.365Z,50.27
2024-05-09T09:56:45.336Z,49.33
2024-05-09T09:59:17.793Z,49.30
2024-05-09T10:01:58.371Z,47.69
2024-05-09T10:04:28.931Z,47.49
2024-05-09T10:07:09.294Z,47.38
2024-05-09T10:09:41.057Z,46.04
2024-05-09T10:12:56.339Z,44.35
2024-05-09T10:15:26.222Z,43.06
2024-05-09T10:17:59.677Z,41.86
2024-05-09T10:20:43.563Z,41.74
2024-05-09T10:23:29.288Z,41.74
2024-05-09T10:26:01.419Z,41.45
2024-05-09T10:28:37.966Z,40.53
2024-05-09T10:31:24.372Z,41.65
2024-05-09T10:34:06.952Z,40.89
2024-05-09T10:36:34.514Z,40.33
2024-05-09T10:39:07.699Z,40.16
2024-05-09T10:41:42.055Z,40.35
2024-05-09T10:44:20.206Z,40.11
2024-05-09T10:47:00.109Z,39.58
2024-05-09T10:49:34.531Z,39.46
2024-05-09T10:52:10.556Z,39.34
2024-05-09T10:57:29.630Z,39.32
2024-05-09T11:00:15.803Z,38.73
2024-05-09T11:02:53.002Z,39.08
2024-05-09T11:05:36.778Z,38.99
2024-05-09T11:08:14.485Z,38.67
2024-05-09T11:10:47.087Z,38.57
2024-05-09T11:13:43.686Z,37.70
2024-05-09T11:16:20.708Z,37.70
2024-05-09T11:18:58.267Z,37.25
2024-05-09T11:21:27.179Z,36.83
2024-05-09T11:23:57.169Z,37.47
2024-05-09T11:26:28.205Z,37.59
2024-05-09T11:29:00.844Z,38.07
2024-05-09T11:31:29.123Z,38.02
2024-05-09T11:33:59.212Z,38.18
2024-05-09T11:36:28.015Z,37.84
2024-05-09T11:38:59.182Z,37.37
2024-05-09T11:41:31.586Z,36.61
2024-05-09T11:44:06.258Z,36.81
2024-05-09T11:46:34.119Z,36.59
2024-05-09T11:49:06.414Z,36.06
2024-05-09T11:51:35.948Z,35.48
2024-05-09T11:54:17.013Z,34.01
2024-05-09T11:56:58.009Z,33.40
2024-05-09T11:59:34.512Z,34.11
2024-05-09T12:02:03.834Z,34.45
2024-05-09T12:05:02.453Z,34.92
2024-05-09T12:07:33.999Z,33.25
2024-05-09T12:10:22.284Z,34.03
2024-05-09T12:13:03.123Z,33.60
2024-05-09T12:15:45.744Z,33.50
2024-05-09T12:18:18.417Z,33.47
2024-05-09T12:20:52.583Z,32.83
2024-05-09T12:23:43.343Z,32.84
2024-05-09T12:26:15.912Z,33.22
2024-05-09T12:28:48.506Z,32.85
2024-05-09T12:31:46.388Z,32.26
2024-05-09T12:34:22.107Z,32.22
2024-05-09T12:36:53.158Z,32.38
2024-05-09T12:39:22.377Z,32.59
2024-05-09T12:42:00.836Z,31.38
2024-05-09T12:44:34.873Z,30.64
2024-05-09T12:47:09.671Z,30.60
2024-05-09T12:49:46.011Z,31.28
2024-05-09T12:52:25.210Z,31.19
2024-05-09T12:54:59.442Z,31.04
2024-05-09T12:57:44.040Z,30.90
2024-05-09T13:00:27.974Z,30.64
2024-05-09T13:03:13.051Z,30.99
2024-05-09T13:05:51.726Z,30.68
2024-05-09T13:08:28.285Z,30.08
2024-05-09T13:10:57.023Z,30.81
2024-05-09T13:13:30.724Z,29.95
2024-05-09T13:16:00.510Z,30.10
2024-05-09T13:18:46.039Z,30.33
2024-05-09T13:21:34.611Z,29.97
2024-05-09T13:24:28.860Z,30.02
2024-05-09T13:27:09.483Z,30.67
2024-05-09T13:29:44.469Z,30.00
2024-05-09T13:32:12.742Z,29.13
2024-05-09T13:34:51.783Z,29.59
2024-05-09T13:37:28.606Z,29.84
2024-05-09T13:40:12.028Z,29.55
2024-05-09T13:42:43.494Z,29.01
2024-05-09T13:45:19.344Z,28.55
2024-05-09T13:47:50.072Z,28.09
2024-05-09T13:50:35.103Z,27.99
2024-05-09T13:53:10.996Z,27.74
2024-05-09T13:55:43.353Z,26.97
2024-05-09T13:58:21.176Z,26.40
2024-05-09T14:00:52.894Z,26.57
2024-05-09T14:03:30.234Z,26.79
2024-05-09T14:06:16.201Z,26.78
2024-05-09T14:08:46.540Z,26.65
2024-05-09T14:11:27.856Z,26.34
2024-05-09T14:13:59.889Z,26.21
2024-05-09T14:16:42.225Z,25.92
2024-05-09T14:19:10.625Z,25.41
2024-05-09T14:21:50.599Z,25.68
2024-05-09T14:24:23.156Z,25.69
2024-05-09T14:26:54.699Z,25.83
2024-05-09T14:29:26.031Z,25.58
2024-05-09T14:31:59.600Z,25.04
2024-05-09T14:34:32.634Z,25.51
2024-05-09T14:37:29.004Z,25.45
2024-05-09T14:39:58.175Z,25.12
2024-05-09T14:42:34.210Z,25.16
2024-05-09T14:45:12.986Z,25.01
2024-05-09T14:47:48.687Z,24.61
2024-05-09T14:53:13.870Z,24.96
2024-05-09T14:55:51.074Z,24.80
2024-05-09T14:58:31.943Z,24.10
2024-05-09T15:01:09.025Z,24.22
2024-05-09T15:03:44.531Z,23.57
2024-05-09T15:06:18.005Z,24.21
2024-05-09T15:08:57.160Z,23.82
2024-05-09T15:11:41.317Z,24.23
2024-05-09T15:14:16.304Z,24.28
2024-05-09T15:16:48.914Z,23.78
2024-05-09T15:22:08.241Z,23.34
2024-05-09T15:30:30.358Z,24.05
2024-05-09T15:33:12.096Z,23.68
2024-05-09T15:35:47.059Z,23.82
2024-05-09T15:38:18.843Z,23.44
2024-05-09T15:40:52.886Z,22.29
2024-05-09T15:43:42.141Z,22.94
2024-05-09T15:46:22.711Z,22.41
2024-05-09T15:48:59.368Z,22.05
2024-05-09T15:51:37.969Z,21.92
2024-05-09T15:54:27.230Z,22.46
2024-05-09T15:57:13.491Z,22.72
2024-05-09T15:59:45.017Z,22.32
2024-05-09T16:02:45.817Z,22.38
2024-05-09T16:05:14.584Z,22.60
2024-05-09T16:07:45.599Z,22.84
2024-05-09T16:10:20.250Z,22.57
2024-05-09T16:12:58.232Z,22.98
2024-05-09T16:15:29.154Z,23.65
2024-05-09T16:18:00.331Z,23.00
2024-05-09T16:20:37.885Z,22.51
2024-05-09T16:23:14.145Z,22.57
2024-05-09T16:25:55.958Z,22.15
2024-05-09T16:28:38.026Z,21.94
2024-05-09T16:31:06.744Z,21.66
2024-05-09T16:33:41.457Z,22.37
2024-05-09T16:36:13.614Z,22.13
2024-05-09T16:38:47.317Z,22.51
2024-05-09T16:41:15.626Z,23.01
2024-05-09T16:43:56.456Z,21.56
2024-05-09T16:46:28.963Z,22.55
2024-05-09T16:49:00.876Z,22.17
2024-05-09T16:51:29.997Z,22.59
2024-05-09T16:54:10.351Z,23.41
2024-05-09T16:56:55.768Z,23.86
2024-05-09T17:00:25.542Z,23.88
2024-05-09T17:03:11.200Z,23.73
2024-05-09T17:05:45.951Z,23.75
2024-05-09T17:08:27.356Z,23.72
2024-05-09T17:11:05.109Z,24.11
2024-05-09T17:13:51.109Z,24.22
2024-05-09T17:16:24.869Z,24.12
2024-05-09T17:19:07.664Z,24.87
2024-05-09T17:21:54.129Z,25.13
2024-05-09T17:24:30.188Z,25.34
2024-05-09T17:27:16.805Z,25.56
2024-05-09T17:29:52.334Z,25.88
2024-05-09T17:32:25.660Z,26.72
2024-05-09T17:35:08.655Z,26.66
2024-05-09T17:37:39.786Z,27.28
2024-05-09T17:43:03.090Z,27.83
2024-05-09T17:45:34.286Z,27.51
2024-05-09T17:48:03.244Z,28.07
2024-05-09T17:50:38.115Z,27.85
2024-05-09T17:53:08.443Z,27.95
2024-05-09T17:55:45.501Z,28.04
2024-05-09T17:58:13.497Z,28.68
2024-05-09T18:00:47.804Z,28.44
2024-05-09T18:03:17.378Z,29.03
2024-05-09T18:06:03.260Z,29.30
2024-05-09T18:08:32.384Z,29.09
2024-05-09T18:11:08.180Z,29.43
2024-05-09T18:13:37.173Z,29.66
2024-05-09T18:16:07.560Z,29.90
2024-05-09T18:18:36.103Z,30.06
2024-05-09T18:21:09.224Z,30.32
2024-05-09T18:23:41.948Z,30.80
2024-05-09T18:26:14.762Z,31.04
2024-05-09T18:28:47.247Z,31.58
2024-05-09T18:31:23.064Z,31.74
2024-05-09T18:33:55.615Z,31.80
2024-05-09T18:36:39.076Z,32.20
2024-05-09T18:39:14.998Z,32.56
2024-05-09T18:41:51.677Z,33.16
2024-05-09T18:44:24.153Z,33.50
2024-05-09T18:46:56.385Z,33.97
2024-05-09T18:49:24.889Z,34.19
2024-05-09T18:51:58.149Z,34.76
2024-05-09T18:57:22.242Z,35.88
2024-05-09T18:59:57.411Z,36.91
2024-05-09T19:02:32.241Z,37.51
2024-05-09T19:04:59.961Z,38.07
2024-05-09T19:07:46.650Z,38.72
2024-05-09T19:10:28.676Z,38.45
2024-05-09T19:13:08.862Z,38.66
2024-05-09T19:15:47.862Z,39.02
2024-05-09T19:18:17.294Z,39.30
2024-05-09T19:20:52.843Z,39.51
2024-05-09T19:23:23.921Z,39.52
2024-05-09T19:26:15.895Z,39.53
2024-05-09T19:28:51.271Z,40.23
2024-05-09T19:31:27.296Z,40.22
2024-05-09T19:34:01.433Z,40.45
2024-05-09T19:36:35.575Z,40.94
2024-05-09T19:39:18.216Z,40.83
2024-05-09T19:41:57.616Z,40.58
2024-05-09T19:44:27.153Z,40.93
2024-05-09T19:47:05.874Z,40.99
2024-05-09T19:49:36.705Z,41.46
2024-05-09T19:52:08.427Z,41.31
2024-05-09T19:54:38.952Z,41.18
2024-05-09T19:57:09.986Z,41.27
2024-05-09T19:59:38.307Z,41.44
2024-05-09T20:02:10.464Z,42.35
2024-05-09T20:04:45.914Z,42.59
2024-05-09T20:07:28.459Z,42.99
2024-05-09T20:10:08.014Z,42.91
2024-05-09T20:12:39.475Z,43.29
2024-05-09T20:15:13.800Z,43.62
2024-05-09T20:17:43.866Z,43.62
2024-05-09T20:20:28.223Z,43.77
2024-05-09T20:26:09.836Z,44.16
2024-05-09T20:28:40.924Z,44.55
2024-05-09T20:31:14.382Z,44.58
2024-05-09T20:33:51.421Z,44.74
2024-05-09T20:36:32.139Z,45.04
2024-05-09T20:39:00.869Z,45.51
2024-05-09T20:41:39.580Z,45.30
2024-05-09T20:44:11.012Z,45.64
2024-05-09T20:46:41.292Z,45.17
2024-05-09T20:49:08.909Z,45.68
2024-05-09T20:51:40.164Z,45.42
2024-05-09T20:54:08.091Z,45.12
2024-05-09T20:56:41.947Z,45.37
2024-05-09T20:59:10.598Z,45.56
2024-05-09T21:01:48.060Z,45.32
2024-05-09T21:04:20.617Z,45.06
2024-05-09T21:07:01.327Z,45.05
2024-05-09T21:09:38.936Z,44.93
2024-05-09T21:12:15.983Z,45.55
2024-05-09T21:14:50.860Z,45.39
2024-05-09T21:17:25.200Z,45.18
2024-05-09T21:19:56.637Z,45.55
2024-05-09T21:22:41.382Z,45.41
2024-05-09T21:25:10.828Z,45.69
2024-05-09T21:27:46.406Z,45.77
2024-05-09T21:32:59.418Z,45.62
2024-05-09T21:35:28.903Z,45.66
2024-05-09T21:38:06.412Z,45.73
2024-05-09T21:40:47.325Z,45.55
2024-05-09T21:43:45.147Z,45.69
2024-05-09T21:46:18.660Z,45.89
2024-05-09T21:48:50.408Z,45.61
2024-05-09T21:51:18.361Z,45.68
2024-05-09T21:53:49.516Z,45.70
2024-05-09T21:56:17.222Z,46.00
2024-05-09T21:58:49.814Z,45.80
2024-05-09T22:01:17.316Z,46.02
2024-05-09T22:03:47.573Z,45.75
2024-05-09T22:06:17.483Z,45.56
2024-05-09T22:08:47.996Z,45.77
2024-05-09T22:11:15.380Z,45.79
2024-05-09T22:13:45.369Z,46.16
2024-05-09T22:16:15.260Z,45.95
2024-05-09T22:18:45.716Z,46.38
2024-05-09T22:21:13.729Z,46.38
2024-05-09T22:26:52.479Z,46.54
2024-05-09T22:29:20.093Z,46.60
2024-05-09T22:31:57.472Z,46.61
2024-05-09T22:34:34.039Z,46.45
2024-05-09T22:37:06.370Z,46.92
2024-05-09T22:39:41.344Z,46.58
2024-05-09T22:42:27.759Z,46.58
2024-05-09T22:45:00.679Z,47.06
2024-05-09T22:47:38.517Z,46.72
2024-05-09T22:53:12.282Z,46.96
2024-05-09T22:56:18.291Z,47.22
2024-05-09T22:58:50.015Z,46.92
2024-05-09T23:01:24.964Z,47.12
2024-05-09T23:03:58.340Z,47.35
2024-05-09T23:06:31.021Z,47.37
2024-05-09T23:09:01.552Z,47.61
2024-05-09T23:11:36.220Z,47.55
2024-05-09T23:14:04.491Z,47.83
2024-05-09T23:16:35.989Z,47.71
2024-05-09T23:19:28.996Z,48.02
2024-05-09T23:22:06.614Z,48.10
2024-05-09T23:24:38.740Z,47.86
2024-05-09T23:27:09.639Z,48.14
2024-05-09T23:29:51.632Z,48.07
2024-05-09T23:32:27.888Z,48.01
2024-05-09T23:35:00.886Z,48.12
2024-05-09T23:37:37.528Z,47.98
2024-05-09T23:40:18.102Z,48.41
2024-05-09T23:45:41.336Z,48.36
2024-05-09T23:48:10.739Z,48.34
2024-05-09T23:50:57.560Z,48.58
2024-05-09T23:53:28.807Z,48.10
2024-05-09T23:56:08.116Z,48.48
2024-05-09T23:58:40.072Z,48.45
